Time;durP1;ratioP1;P1;durP2;ratioP2;P2;SDS_P1;SDS_P2;PMS_P1;PMS_P2;Temp;Humidity;BMP_temperature;BMP_pressure;BME280_temperature;BME280_humidity;BME280_pressure;Samples;Min_cycle;Max_cycle;Signal;HPM_P1;HPM_P2
2024/01/09 00:01:07;;;;;;;5.40;3.90;;;;;;;;;;6178385;23;20067;-85
2024/01/09 00:03:33;;;;;;;7.73;4.20;;;;;;;;;;6199298;23;20767;-85
2024/01/09 00:05:59;;;;;;;8.60;4.00;;;;;;;;;;6177753;23;20031;-85
2024/01/09 00:08:25;;;;;;;7.53;4.50;;;;;;;;;;6203483;23;20016;-85
2024/01/09 00:10:51;;;;;;;7.47;3.60;;;;;;;;;;6201408;23;20086;-85
2024/01/09 00:13:17;;;;;;;5.83;3.97;;;;;;;;;;6204313;23;20488;-85
2024/01/09 00:15:43;;;;;;;7.43;4.03;;;;;;;;;;6175132;23;20020;-85
2024/01/09 00:18:09;;;;;;;5.50;4.23;;;;;;;;;;6202871;23;20016;-85
2024/01/09 00:20:35;;;;;;;5.67;4.00;;;;;;;;;;6172053;23;20020;-85
2024/01/09 00:23:01;;;;;;;7.17;4.10;;;;;;;;;;6178228;23;20064;-85
2024/01/09 00:25:28;;;;;;;5.83;4.00;;;;;;;;;;6173807;23;20358;-85
2024/01/09 00:27:54;;;;;;;7.03;4.00;;;;;;;;;;6178005;23;20012;-85
2024/01/09 00:30:20;;;;;;;6.27;4.03;;;;;;;;;;6200359;23;20408;-86
2024/01/09 00:32:48;;;;;;;6.90;4.50;;;;;;;;;;6177766;23;20023;-85
2024/01/09 00:35:15;;;;;;;7.10;3.80;;;;;;;;;;6178039;23;20026;-85
2024/01/09 00:37:41;;;;;;;9.00;4.27;;;;;;;;;;6196868;23;20075;-86
2024/01/09 00:40:08;;;;;;;6.17;3.87;;;;;;;;;;6200781;23;20498;-85
2024/01/09 00:42:34;;;;;;;7.10;4.03;;;;;;;;;;6173110;23;20127;-86
2024/01/09 00:45:02;;;;;;;5.30;3.67;;;;;;;;;;6174169;23;20127;-85
2024/01/09 00:47:29;;;;;;;7.33;4.17;;;;;;;;;;6175364;23;20357;-85
2024/01/09 00:49:55;;;;;;;5.13;3.90;;;;;;;;;;6204567;23;20492;-85
2024/01/09 00:52:21;;;;;;;5.73;3.93;;;;;;;;;;6176086;23;20135;-85
2024/01/09 00:54:47;;;;;;;7.80;4.20;;;;;;;;;;6197543;23;20368;-85
2024/01/09 00:57:13;;;;;;;4.73;3.40;;;;;;;;;;6200881;23;20016;-85
2024/01/09 00:59:41;;;;;;;6.37;3.73;;;;;;;;;;6176681;23;20020;-86
2024/01/09 01:02:08;;;;;;;5.97;4.10;;;;;;;;;;6178708;23;20023;-85
2024/01/09 01:04:38;;;;;;;7.13;4.00;;;;;;;;;;6201948;23;20020;-86
2024/01/09 01:07:06;;;;;;;5.23;4.00;;;;;;;;;;6179199;23;20016;-86
2024/01/09 01:09:33;;;;;;;7.07;4.00;;;;;;;;;;6200596;23;20026;-85
2024/01/09 01:12:01;;;;;;;7.40;3.93;;;;;;;;;;6204005;23;20016;-86
2024/01/09 01:14:29;;;;;;;5.55;3.90;;;;;;;;;;6179630;23;20503;-85
2024/01/09 01:16:58;;;;;;;6.22;3.92;;;;;;;;;;6228251;23;20020;-85
2024/01/09 01:19:25;;;;;;;;;;;;;;;;;;6227915;23;20047;-85
2024/01/09 01:21:52;;;;;;;5.47;3.63;;;;;;;;;;6201384;23;19915;-85
2024/01/09 01:24:19;;;;;;;7.13;4.50;;;;;;;;;;6203089;23;20119;-85
2024/01/09 01:26:46;;;;;;;5.40;3.80;;;;;;;;;;6201700;23;20024;-85
2024/01/09 01:29:15;;;;;;;7.10;4.03;;;;;;;;;;6203424;23;20024;-86
2024/01/09 01:31:44;;;;;;;8.13;4.07;;;;;;;;;;6177484;23;20035;-86
2024/01/09 01:34:12;;;;;;;8.17;4.07;;;;;;;;;;6205792;23;20095;-86
2024/01/09 01:36:39;;;;;;;8.03;4.00;;;;;;;;;;6201392;23;20024;-86
2024/01/09 01:39:07;;;;;;;6.50;3.83;;;;;;;;;;6202837;23;20020;-86
2024/01/09 01:41:35;;;;;;;6.30;3.65;;;;;;;;;;6200390;23;20023;-86
2024/01/09 01:44:01;;;;;;;5.65;4.03;;;;;;;;;;6203071;23;20028;-85
2024/01/09 01:46:30;;;;;;;8.40;3.93;;;;;;;;;;6199964;23;20051;-86
2024/01/09 01:48:57;;;;;;;;;;;;;;;;;;6177027;23;20444;-85
2024/01/09 01:51:24;;;;;;;7.97;3.80;;;;;;;;;;6226068;23;19919;-85
2024/01/09 01:53:51;;;;;;;6.47;4.07;;;;;;;;;;6201082;23;20016;-86
2024/01/09 01:56:18;;;;;;;6.67;3.97;;;;;;;;;;6177032;23;20062;-85
2024/01/09 01:58:45;;;;;;;7.73;4.37;;;;;;;;;;6176694;23;20016;-85
2024/01/09 02:01:12;;;;;;;5.97;3.83;;;;;;;;;;6177835;23;20016;-86
2024/01/09 02:03:41;;;;;;;5.13;3.43;;;;;;;;;;6200549;23;20023;-86
2024/01/09 02:06:08;;;;;;;;;;;;;;;;;;6204086;23;20012;-86
2024/01/09 02:08:36;;;;;;;8.32;4.38;;;;;;;;;;6200856;23;19923;-86
2024/01/09 02:11:03;;;;;;;7.00;4.37;;;;;;;;;;6204837;23;20020;-86
2024/01/09 02:13:30;;;;;;;6.37;4.60;;;;;;;;;;6177513;23;20102;-86
2024/01/09 02:15:58;;;;;;;8.83;4.50;;;;;;;;;;6179437;23;20722;-85
2024/01/09 02:18:26;;;;;;;5.78;4.20;;;;;;;;;;6204212;23;20417;-86
2024/01/09 02:20:54;;;;;;;;;;;;;;;;;;6202797;23;20031;-85
2024/01/09 02:23:21;;;;;;;5.83;3.83;;;;;;;;;;6228954;23;19922;-86
2024/01/09 02:25:48;;;;;;;6.30;4.07;;;;;;;;;;6175924;23;20016;-85
2024/01/09 02:28:28;;;;;;;6.97;4.90;;;;;;;;;;6179690;23;20012;-85
2024/01/09 02:30:56;;;;;;;7.27;4.10;;;;;;;;;;6177274;23;20875;-86
2024/01/09 02:33:23;;;;;;;7.53;4.37;;;;;;;;;;6179453;23;20074;-86
2024/01/09 02:35:50;;;;;;;7.77;4.27;;;;;;;;;;6204283;23;20997;-85
2024/01/09 02:38:17;;;;;;;9.23;4.50;;;;;;;;;;6179206;23;20024;-85
2024/01/09 02:40:45;;;;;;;6.70;4.20;;;;;;;;;;6201464;23;20024;-85
2024/01/09 02:43:12;;;;;;;6.93;4.00;;;;;;;;;;6178605;23;20016;-85
2024/01/09 02:45:40;;;;;;;7.67;4.40;;;;;;;;;;6177424;23;20725;-86
2024/01/09 02:48:08;;;;;;;5.67;4.30;;;;;;;;;;6179166;23;20044;-85
2024/01/09 02:50:35;;;;;;;6.63;4.17;;;;;;;;;;6178118;23;20420;-86
2024/01/09 02:53:05;;;;;;;7.80;4.50;;;;;;;;;;6179850;23;20031;-86
2024/01/09 02:55:32;;;;;;;6.63;4.07;;;;;;;;;;6202034;23;20039;-86
2024/01/09 02:58:00;;;;;;;7.83;4.40;;;;;;;;;;6179988;23;20027;-86
2024/01/09 03:00:27;;;;;;;7.10;4.10;;;;;;;;;;6207324;23;20023;-86
2024/01/09 03:02:54;;;;;;;5.70;4.10;;;;;;;;;;6206300;23;20020;-86
2024/01/09 03:05:22;;;;;;;6.17;4.13;;;;;;;;;;6206885;23;20463;-86
2024/01/09 03:07:49;;;;;;;6.72;4.05;;;;;;;;;;6180294;23;20024;-86
2024/01/09 03:10:16;;;;;;;6.80;4.70;;;;;;;;;;6181311;23;20019;-86
2024/01/09 03:12:43;;;;;;;6.57;4.13;;;;;;;;;;6205872;23;20020;-86
2024/01/09 03:15:15;;;;;;;5.97;4.23;;;;;;;;;;6207622;23;20024;-85
2024/01/09 03:17:42;;;;;;;5.63;4.00;;;;;;;;;;6179388;23;20020;-86
2024/01/09 03:20:10;;;;;;;6.53;3.73;;;;;;;;;;6183133;23;20020;-86
2024/01/09 03:22:37;;;;;;;5.85;3.88;;;;;;;;;;6205377;23;20090;-86
2024/01/09 03:25:05;;;;;;;6.20;4.17;;;;;;;;;;6182070;23;20115;-85
2024/01/09 03:27:32;;;;;;;6.13;3.80;;;;;;;;;;6179243;23;20054;-86
2024/01/09 03:29:59;;;;;;;6.97;3.93;;;;;;;;;;6182359;23;20024;-86
2024/01/09 03:32:31;;;;;;;6.53;3.83;;;;;;;;;;6207286;23;20020;-86
2024/01/09 03:35:01;;;;;;;5.93;3.70;;;;;;;;;;6208989;23;20073;-86
2024/01/09 03:37:29;;;;;;;7.07;4.20;;;;;;;;;;6180190;23;20445;-86
2024/01/09 03:39:56;;;;;;;6.50;4.30;;;;;;;;;;6232330;23;20361;-86
2024/01/09 03:42:23;;;;;;;6.23;3.70;;;;;;;;;;6206506;23;20271;-86
2024/01/09 03:44:50;;;;;;;7.67;4.00;;;;;;;;;;6206372;23;20055;-86
2024/01/09 03:47:19;;;;;;;6.17;3.87;;;;;;;;;;6208346;23;20050;-86
2024/01/09 03:49:46;;;;;;;8.20;4.35;;;;;;;;;;6204616;23;20020;-86
2024/01/09 03:52:14;;;;;;;6.50;3.60;;;;;;;;;;6204423;23;20620;-86
2024/01/09 03:54:40;;;;;;;4.90;3.57;;;;;;;;;;6177737;23;20024;-86
2024/01/09 03:57:08;;;;;;;4.50;3.27;;;;;;;;;;6205636;23;20437;-85
2024/01/09 03:59:35;;;;;;;4.93;3.33;;;;;;;;;;6179031;23;20503;-86
2024/01/09 04:02:02;;;;;;;8.10;4.10;;;;;;;;;;6178924;23;20099;-86
2024/01/09 04:04:28;;;;;;;6.60;3.87;;;;;;;;;;6203914;23;20777;-86
2024/01/09 04:06:55;;;;;;;6.87;3.97;;;;;;;;;;6180610;23;20048;-86
2024/01/09 04:09:23;;;;;;;5.83;3.33;;;;;;;;;;6181189;23;20510;-86
2024/01/09 04:11:50;;;;;;;7.10;3.70;;;;;;;;;;6204547;23;20114;-86
2024/01/09 04:14:17;;;;;;;6.20;3.50;;;;;;;;;;6182080;23;20016;-86
2024/01/09 04:16:48;;;;;;;6.87;3.50;;;;;;;;;;6178874;23;20024;-86
2024/01/09 04:19:15;;;;;;;4.60;3.40;;;;;;;;;;6178982;23;20023;-85
2024/01/09 04:21:42;;;;;;;7.20;3.90;;;;;;;;;;6203774;23;20073;-86
2024/01/09 04:24:09;;;;;;;5.20;3.40;;;;;;;;;;6181158;23;20101;-86
2024/01/09 04:26:36;;;;;;;5.97;3.47;;;;;;;;;;6178713;23;20016;-86
2024/01/09 04:29:04;;;;;;;7.03;3.43;;;;;;;;;;6180671;23;20031;-86
2024/01/09 04:31:31;;;;;;;5.20;3.17;;;;;;;;;;6177765;23;20008;-86
2024/01/09 04:33:58;;;;;;;5.37;3.37;;;;;;;;;;6183478;23;20066;-86
2024/01/09 04:36:25;;;;;;;6.80;3.33;;;;;;;;;;6205609;23;20070;-85
2024/01/09 04:38:54;;;;;;;5.43;3.67;;;;;;;;;;6178362;23;20016;-87
2024/01/09 04:41:22;;;;;;;5.40;3.40;;;;;;;;;;6204895;23;20768;-87
2024/01/09 04:43:52;;;;;;;5.63;3.70;;;;;;;;;;6203390;23;20994;-86
2024/01/09 04:46:26;;;;;;;5.20;3.70;;;;;;;;;;6179112;23;20027;-86
2024/01/09 04:48:53;;;;;;;7.57;3.83;;;;;;;;;;6204273;23;20020;-86
2024/01/09 04:51:21;;;;;;;4.80;3.40;;;;;;;;;;6229664;23;20462;-86
2024/01/09 04:53:48;;;;;;;4.57;2.95;;;;;;;;;;6204100;23;20428;-86
2024/01/09 04:56:17;;;;;;;4.30;3.20;;;;;;;;;;6204203;23;20102;-86
2024/01/09 04:58:44;;;;;;;6.25;3.67;;;;;;;;;;6204835;23;20016;-86
2024/01/09 05:01:11;;;;;;;6.60;3.80;;;;;;;;;;6205268;23;20078;-86
2024/01/09 05:03:47;;;;;;;6.50;3.67;;;;;;;;;;6204282;23;20020;-87
2024/01/09 05:06:15;;;;;;;5.90;3.40;;;;;;;;;;6180764;23;20028;-85
2024/01/09 05:08:43;;;;;;;4.60;3.20;;;;;;;;;;6178379;23;20012;-86
2024/01/09 05:11:10;;;;;;;5.30;3.30;;;;;;;;;;6205483;23;20707;-85
2024/01/09 05:13:37;;;;;;;7.53;3.70;;;;;;;;;;6204936;23;20077;-86
2024/01/09 05:16:08;;;;;;;4.60;3.30;;;;;;;;;;6204799;23;20051;-86
2024/01/09 05:18:35;;;;;;;6.67;3.73;;;;;;;;;;6177210;23;20023;-86
2024/01/09 05:21:02;;;;;;;5.13;3.23;;;;;;;;;;6179204;23;20047;-86
2024/01/09 05:23:30;;;;;;;8.20;3.60;;;;;;;;;;6180447;23;20027;-86
2024/01/09 05:25:57;;;;;;;5.05;3.50;;;;;;;;;;6233160;23;20066;-85
2024/01/09 05:28:24;;;;;;;5.47;3.40;;;;;;;;;;6180470;23;20412;-85
2024/01/09 05:30:51;;;;;;;5.03;3.20;;;;;;;;;;6178926;23;20381;-86
2024/01/09 05:33:19;;;;;;;5.30;3.50;;;;;;;;;;6205486;23;20535;-85
2024/01/09 05:35:46;;;;;;;6.10;3.70;;;;;;;;;;6202285;23;20095;-86
2024/01/09 05:38:13;;;;;;;5.30;3.90;;;;;;;;;;6204181;23;20061;-86
2024/01/09 05:40:40;;;;;;;5.50;3.40;;;;;;;;;;6225807;23;20028;-86
2024/01/09 05:43:08;;;;;;;7.03;3.50;;;;;;;;;;6180187;23;20056;-86
2024/01/09 05:45:35;;;;;;;4.97;3.33;;;;;;;;;;6178102;23;20523;-86
2024/01/09 05:48:01;;;;;;;6.67;3.97;;;;;;;;;;6203045;23;20336;-86
2024/01/09 05:50:28;;;;;;;6.90;3.70;;;;;;;;;;6175821;23;20015;-86
2024/01/09 05:52:55;;;;;;;4.73;3.30;;;;;;;;;;6201859;23;20020;-87
2024/01/09 05:55:23;;;;;;;7.60;3.60;;;;;;;;;;6177322;23;20016;-86
2024/01/09 05:57:50;;;;;;;7.17;3.80;;;;;;;;;;6176591;23;20027;-86
2024/01/09 06:00:18;;;;;;;5.93;3.57;;;;;;;;;;6177720;23;20046;-88
2024/01/09 06:02:45;;;;;;;6.20;3.40;;;;;;;;;;6179944;23;20020;-87
2024/01/09 06:05:13;;;;;;;6.10;3.70;;;;;;;;;;6209126;23;20095;-87
2024/01/09 06:07:40;;;;;;;6.97;3.47;;;;;;;;;;6181244;23;20012;-88
2024/01/09 06:10:07;;;;;;;4.97;3.47;;;;;;;;;;6183072;23;20020;-88
2024/01/09 06:12:35;;;;;;;5.63;3.58;;;;;;;;;;6180479;23;20016;-88
2024/01/09 06:15:03;;;;;;;9.83;3.93;;;;;;;;;;6184128;23;20016;-88
2024/01/09 06:17:31;;;;;;;5.30;3.83;;;;;;;;;;6206640;23;20012;-88
2024/01/09 06:19:57;;;;;;;8.10;3.73;;;;;;;;;;6183631;23;20027;-88
2024/01/09 06:22:25;;;;;;;6.37;3.63;;;;;;;;;;6183227;23;20018;-88
2024/01/09 06:24:53;;;;;;;6.05;3.60;;;;;;;;;;6207231;23;20087;-88
2024/01/09 06:27:20;;;;;;;5.13;3.03;;;;;;;;;;6182944;23;20090;-87
2024/01/09 06:29:47;;;;;;;8.53;4.10;;;;;;;;;;6181268;23;20345;-88
2024/01/09 06:32:15;;;;;;;5.73;3.50;;;;;;;;;;6209655;23;20051;-88
2024/01/09 06:34:43;;;;;;;7.53;3.70;;;;;;;;;;6208505;23;20020;-88
2024/01/09 06:37:10;;;;;;;6.47;3.57;;;;;;;;;;6186126;23;20050;-87
2024/01/09 06:39:37;;;;;;;5.73;3.20;;;;;;;;;;6232468;23;20020;-87
2024/01/09 06:42:05;;;;;;;6.03;3.67;;;;;;;;;;6186577;22;20027;-87
2024/01/09 06:44:35;;;;;;;4.97;3.40;;;;;;;;;;6188577;22;20020;-88
2024/01/09 06:47:45;;;;;;;5.80;3.50;;;;;;;;;;6217669;22;20100;-87
2024/01/09 06:58:31;;;;;;;5.03;3.37;;;;;;;;;;6260974;22;20034;-86
2024/01/09 07:01:29;;;;;;;6.97;3.53;;;;;;;;;;6188566;22;20038;-87
2024/01/09 07:03:55;;;;;;;7.93;3.60;;;;;;;;;;6215582;22;20317;-85
2024/01/09 07:06:31;;;;;;;5.90;3.43;;;;;;;;;;6216083;22;20037;-85
2024/01/09 07:08:57;;;;;;;6.90;4.07;;;;;;;;;;6214895;22;20011;-85
2024/01/09 07:11:35;;;;;;;6.77;4.00;;;;;;;;;;6191153;22;20102;-86
2024/01/09 07:14:01;;;;;;;5.50;3.38;;;;;;;;;;6189882;22;20023;-86
2024/01/09 07:16:35;;;;;;;7.10;3.30;;;;;;;;;;6214952;22;20099;-86
2024/01/09 07:19:07;;;;;;;7.40;4.20;;;;;;;;;;6190901;22;20065;-86
2024/01/09 07:21:45;;;;;;;6.10;3.33;;;;;;;;;;6243802;23;20074;-86
2024/01/09 07:24:17;;;;;;;6.88;3.65;;;;;;;;;;6160549;23;20099;-86
2024/01/09 07:26:43;;;;;;;6.27;3.40;;;;;;;;;;6157990;23;20510;-85
2024/01/09 07:29:19;;;;;;;4.77;3.53;;;;;;;;;;6210799;23;20031;-86
2024/01/09 07:31:47;;;;;;;5.80;3.70;;;;;;;;;;6183765;23;20016;-85
2024/01/09 07:34:14;;;;;;;6.10;3.70;;;;;;;;;;6185221;23;20012;-85
2024/01/09 07:39:53;;;;;;;6.33;3.70;;;;;;;;;;6201068;23;20020;-86
2024/01/09 07:49:08;;;;;;;6.10;3.63;;;;;;;;;;6006904;23;20019;-86
2024/01/09 07:51:35;;;;;;;5.27;3.67;;;;;;;;;;6116173;23;20017;-86
2024/01/09 07:54:03;;;;;;;6.33;3.57;;;;;;;;;;6118537;23;20021;-86
2024/01/09 07:56:29;;;;;;;6.23;3.80;;;;;;;;;;6136348;23;20015;-85
2024/01/09 07:58:56;;;;;;;7.70;3.83;;;;;;;;;;6158843;23;20074;-85
2024/01/09 08:01:23;;;;;;;6.03;3.40;;;;;;;;;;6208403;23;20023;-85
2024/01/09 08:03:49;;;;;;;6.13;4.07;;;;;;;;;;6156840;23;20097;-85
2024/01/09 08:06:15;;;;;;;6.33;3.63;;;;;;;;;;6158901;23;20091;-85
2024/01/09 08:08:41;;;;;;;6.00;3.63;;;;;;;;;;6208112;23;20023;-84
2024/01/09 08:11:08;;;;;;;6.40;3.67;;;;;;;;;;6183880;23;20016;-83
2024/01/09 08:13:34;;;;;;;6.57;3.80;;;;;;;;;;6157703;23;20024;-82
2024/01/09 08:16:00;;;;;;;8.97;4.00;;;;;;;;;;6181344;23;20090;-83
2024/01/09 08:18:29;;;;;;;7.37;3.90;;;;;;;;;;6158447;23;20090;-85
2024/01/09 08:21:21;;;;;;;6.27;3.93;;;;;;;;;;6185334;23;20075;-91
2024/01/09 08:24:01;;;;;;;7.67;3.83;;;;;;;;;;6185782;23;20022;-92
2024/01/09 08:26:41;;;;;;;5.95;4.00;;;;;;;;;;6156384;23;20167;-92
2024/01/09 08:29:26;;;;;;;8.80;4.70;;;;;;;;;;6190703;23;20023;-93
2024/01/09 08:32:31;;;;;;;7.93;4.13;;;;;;;;;;6198690;23;20028;-93
2024/01/09 08:35:23;;;;;;;6.37;3.77;;;;;;;;;;6170928;23;20039;-93
2024/01/09 08:37:58;;;;;;;;;;;;;;;;;;6066303;23;20018;-94
2024/01/09 08:40:30;;;;;;;6.37;3.53;;;;;;;;;;6182476;23;19919;-91
2024/01/09 08:46:08;;;;;;;7.00;3.87;;;;;;;;;;6182118;23;20020;-86
2024/01/09 08:51:51;;;;;;;6.13;3.30;;;;;;;;;;6243609;22;20027;-84
2024/01/09 08:54:36;;;;;;;6.60;3.70;;;;;;;;;;6217592;22;20023;-92
2024/01/09 08:57:05;;;;;;;6.20;3.80;;;;;;;;;;6207421;23;20020;-90
2024/01/09 08:59:41;;;;;;;5.93;3.83;;;;;;;;;;6204848;23;20123;-90
2024/01/09 09:02:11;;;;;;;8.10;3.97;;;;;;;;;;6234378;23;20713;-90
2024/01/09 09:04:39;;;;;;;6.13;3.63;;;;;;;;;;6205907;23;20097;-90
2024/01/09 09:07:09;;;;;;;7.23;4.00;;;;;;;;;;6207439;23;20251;-90
2024/01/09 09:09:37;;;;;;;7.17;4.40;;;;;;;;;;6155530;23;20024;-90
2024/01/09 09:12:08;;;;;;;5.77;3.50;;;;;;;;;;6233124;23;20012;-89
2024/01/09 09:14:52;;;;;;;7.67;3.90;;;;;;;;;;6231218;23;20020;-90
2024/01/09 09:17:19;;;;;;;5.50;3.60;;;;;;;;;;6207259;22;20022;-89
2024/01/09 09:19:48;;;;;;;5.97;3.90;;;;;;;;;;6181291;23;20019;-92
2024/01/09 09:22:14;;;;;;;;;;;;;;;;;;6207046;23;20027;-91
2024/01/09 09:24:42;;;;;;;3.87;2.87;;;;;;;;;;6204216;23;19935;-90
2024/01/09 09:27:11;;;;;;;7.50;4.00;;;;;;;;;;6181591;23;20453;-90
2024/01/09 09:29:38;;;;;;;;;;;;;;;;;;6206311;23;20015;-90
2024/01/09 09:32:06;;;;;;;6.83;3.97;;;;;;;;;;6206916;23;20172;-90
2024/01/09 09:34:33;;;;;;;5.95;3.70;;;;;;;;;;6205774;23;20066;-90
2024/01/09 09:37:01;;;;;;;5.93;3.50;;;;;;;;;;6206134;23;20027;-90
2024/01/09 09:39:39;;;;;;;6.63;3.92;;;;;;;;;;6205189;23;20016;-90
2024/01/09 09:42:06;;;;;;;;;;;;;;;;;;6182317;23;20111;-90
2024/01/09 09:44:35;;;;;;;4.80;3.70;;;;;;;;;;6179291;23;19916;-90
2024/01/09 09:47:03;;;;;;;6.00;3.63;;;;;;;;;;6181225;23;20028;-91
2024/01/09 09:49:30;;;;;;;;;;;;;;;;;;6179871;23;20190;-90
2024/01/09 09:51:57;;;;;;;5.47;3.40;;;;;;;;;;6206697;23;20236;-92
2024/01/09 09:54:24;;;;;;;4.60;3.10;;;;;;;;;;6182941;23;20035;-91
2024/01/09 09:56:54;;;;;;;4.97;2.83;;;;;;;;;;6205147;23;20023;-91
2024/01/09 09:59:23;;;;;;;4.53;2.70;;;;;;;;;;6206896;23;20016;-91
2024/01/09 10:01:51;;;;;;;6.30;2.30;;;;;;;;;;6177157;23;20459;-91
2024/01/09 10:04:30;;;;;;;5.13;2.50;;;;;;;;;;6157128;23;20040;-91
2024/01/09 10:07:00;;;;;;;5.38;3.25;;;;;;;;;;6182351;23;20024;-92
2024/01/09 10:09:32;;;;;;;5.93;2.95;;;;;;;;;;6181688;23;20318;-91
2024/01/09 10:12:00;;;;;;;4.30;2.88;;;;;;;;;;6182479;23;20020;-89
2024/01/09 10:14:36;;;;;;;3.70;2.90;;;;;;;;;;6207026;23;20020;-88
2024/01/09 10:17:06;;;;;;;8.70;2.58;;;;;;;;;;6207233;22;20012;-88
2024/01/09 10:19:35;;;;;;;3.75;2.85;;;;;;;;;;6205534;23;20020;-89
2024/01/09 10:22:03;;;;;;;3.80;2.90;;;;;;;;;;6207883;23;20020;-92
2024/01/09 10:24:30;;;;;;;;;;;;;;;;;;6205988;23;20336;-88
2024/01/09 10:26:59;;;;;;;4.97;3.00;;;;;;;;;;6207913;23;19915;-88
2024/01/09 10:29:26;;;;;;;;;;;;;;;;;;6207473;23;20020;-88
2024/01/09 10:31:58;;;;;;;5.65;2.83;;;;;;;;;;6206543;23;19919;-88
2024/01/09 10:34:28;;;;;;;3.58;2.65;;;;;;;;;;6203311;23;20630;-89
2024/01/09 10:37:11;;;;;;;4.88;3.05;;;;;;;;;;6184262;23;20028;-91
2024/01/09 10:39:42;;;;;;;3.85;2.42;;;;;;;;;;6178857;23;20012;-92
2024/01/09 10:42:14;;;;;;;4.45;2.90;;;;;;;;;;6206921;23;20047;-91
2024/01/09 10:44:43;;;;;;;3.45;2.55;;;;;;;;;;6205003;23;20054;-91
2024/01/09 10:47:13;;;;;;;4.72;2.70;;;;;;;;;;6157942;23;20075;-90
2024/01/09 10:49:41;;;;;;;4.32;2.90;;;;;;;;;;6180940;23;20024;-90
2024/01/09 10:52:19;;;;;;;4.10;2.60;;;;;;;;;;6181707;23;20052;-91
2024/01/09 10:54:59;;;;;;;5.40;2.30;;;;;;;;;;6200370;22;20024;-90
2024/01/09 10:57:27;;;;;;;3.33;2.60;;;;;;;;;;6177027;23;20031;-90
2024/01/09 10:59:59;;;;;;;4.68;2.60;;;;;;;;;;6176039;23;20044;-91
2024/01/09 11:02:27;;;;;;;3.90;3.20;;;;;;;;;;6177577;23;20418;-90
2024/01/09 11:04:59;;;;;;;5.22;2.90;;;;;;;;;;6179194;23;20083;-91
2024/01/09 11:07:27;;;;;;;4.93;2.80;;;;;;;;;;6177024;23;20028;-92
2024/01/09 11:10:06;;;;;;;3.13;2.45;;;;;;;;;;6205921;23;20013;-93
2024/01/09 11:12:44;;;;;;;4.32;2.83;;;;;;;;;;6128296;23;20016;-92
2024/01/09 11:25:51;;;;;;;5.38;3.10;;;;;;;;;;6110794;22;20076;-86
2024/01/09 11:28:36;;;;;;;3.92;2.38;;;;;;;;;;6247122;22;20030;-85
2024/01/09 11:31:06;;;;;;;3.85;2.80;;;;;;;;;;6271750;22;20501;-86
2024/01/09 11:33:32;;;;;;;4.90;2.53;;;;;;;;;;6219417;22;20023;-85
2024/01/09 11:36:05;;;;;;;4.07;2.67;;;;;;;;;;6246246;22;20733;-85
2024/01/09 11:38:31;;;;;;;4.63;2.58;;;;;;;;;;6270446;22;20022;-86
2024/01/09 11:41:02;;;;;;;4.47;2.75;;;;;;;;;;6222520;22;20023;-86
2024/01/09 11:43:28;;;;;;;3.67;2.70;;;;;;;;;;6245726;22;20407;-87
2024/01/09 11:45:55;;;;;;;5.78;2.53;;;;;;;;;;6246531;22;20053;-87
2024/01/09 11:48:21;;;;;;;3.92;2.60;;;;;;;;;;6221425;22;20035;-86
2024/01/09 11:51:01;;;;;;;4.13;2.70;;;;;;;;;;6220010;22;20023;-86
2024/01/09 11:53:37;;;;;;;4.35;2.95;;;;;;;;;;6246684;22;20019;-87
2024/01/09 11:56:05;;;;;;;2.50;2.22;;;;;;;;;;6221886;22;20021;-86
2024/01/09 11:58:41;;;;;;;;;;;;;;;;;;;;;
2024/01/09 12:01:07;;;;;;;4.70;2.60;;;;;;;;;;6272359;22;19989;-87
2024/01/09 12:03:33;;;;;;;4.20;2.88;;;;;;;;;;6269723;22;20535;-86
2024/01/09 12:06:00;;;;;;;2.88;2.28;;;;;;;;;;6271680;22;20388;-87
2024/01/09 12:08:26;;;;;;;5.05;2.97;;;;;;;;;;6271971;22;20011;-87
2024/01/09 12:10:52;;;;;;;3.00;2.35;;;;;;;;;;6219130;22;20023;-87
2024/01/09 12:13:18;;;;;;;3.33;2.22;;;;;;;;;;6220855;22;20022;-86
2024/01/09 12:15:44;;;;;;;3.40;2.33;;;;;;;;;;6244295;22;20046;-87
2024/01/09 12:18:13;;;;;;;3.00;2.30;;;;;;;;;;6221212;22;20026;-87
2024/01/09 12:20:39;;;;;;;3.05;2.45;;;;;;;;;;6243275;22;20019;-86
2024/01/09 12:23:06;;;;;;;3.55;2.05;;;;;;;;;;6244147;22;20011;-86
2024/01/09 12:25:32;;;;;;;3.67;2.33;;;;;;;;;;6216159;22;20031;-86
2024/01/09 12:28:01;;;;;;;5.03;2.47;;;;;;;;;;6221588;22;20054;-86
2024/01/09 12:30:36;;;;;;;3.60;2.00;;;;;;;;;;6244783;22;20411;-87
2024/01/09 12:33:03;;;;;;;3.88;2.30;;;;;;;;;;6220740;22;20026;-87
2024/01/09 12:35:29;;;;;;;2.85;2.33;;;;;;;;;;6218385;22;20404;-87
2024/01/09 12:37:55;;;;;;;4.60;2.35;;;;;;;;;;6246550;22;20064;-86
2024/01/09 12:40:24;;;;;;;2.80;2.33;;;;;;;;;;6220018;22;20042;-87
2024/01/09 12:43:13;;;;;;;2.97;2.10;;;;;;;;;;6216743;22;20021;-87
2024/01/09 12:45:41;;;;;;;2.15;1.70;;;;;;;;;;6246601;22;20339;-87
2024/01/09 12:48:37;;;;;;;4.43;1.88;;;;;;;;;;6219554;22;20107;-87
2024/01/09 12:51:07;;;;;;;3.03;2.20;;;;;;;;;;6244061;22;20019;-87
2024/01/09 12:53:35;;;;;;;4.00;2.17;;;;;;;;;;6216654;22;20015;-86
2024/01/09 12:56:08;;;;;;;3.15;2.10;;;;;;;;;;6217858;22;20090;-86
2024/01/09 12:58:38;;;;;;;5.32;2.08;;;;;;;;;;6241148;22;20076;-87
2024/01/09 13:01:09;;;;;;;4.03;2.17;;;;;;;;;;6243770;22;20462;-86
2024/01/09 13:03:35;;;;;;;;;;;;;;;;;;6216158;22;20015;-86
2024/01/09 13:06:07;;;;;;;3.30;2.10;;;;;;;;;;6267722;22;20228;-85
2024/01/09 13:08:35;;;;;;;4.30;2.58;;;;;;;;;;6216669;22;20019;-86
2024/01/09 13:11:02;;;;;;;;;;;;;;;;;;6218305;22;20034;-86
2024/01/09 13:13:55;;;;;;;2.83;2.35;;;;;;;;;;6241359;22;19922;-86
2024/01/09 13:16:34;;;;;;;;;;;;;;;;;;;;;
2024/01/09 13:19:13;;;;;;;;;;;;;;;;;;;;;
2024/01/09 13:21:46;;;;;;;2.88;2.30;;;;;;;;;;6241000;22;20488;-85
2024/01/09 13:24:12;;;;;;;3.95;2.53;;;;;;;;;;6220169;22;20335;-86
2024/01/09 13:26:41;;;;;;;2.97;2.40;;;;;;;;;;6235535;22;20020;-86
2024/01/09 13:29:24;;;;;;;3.42;2.40;;;;;;;;;;6214496;22;20020;-86
2024/01/09 13:32:12;;;;;;;;;;;;;;;;;;;;;
2024/01/09 13:35:00;;;;;;;2.47;2.15;;;;;;;;;;6239155;22;20030;-86
2024/01/09 13:37:44;;;;;;;3.83;2.15;;;;;;;;;;6236531;22;20380;-86
2024/01/09 13:40:18;;;;;;;3.50;2.25;;;;;;;;;;6212978;22;20019;-87
2024/01/09 13:42:59;;;;;;;3.15;2.17;;;;;;;;;;6219879;22;20384;-86
2024/01/09 13:46:06;;;;;;;4.88;2.25;;;;;;;;;;6213490;22;20015;-87
2024/01/09 13:48:44;;;;;;;3.40;2.28;;;;;;;;;;6256423;22;20094;-87
2024/01/09 13:51:27;;;;;;;3.05;2.28;;;;;;;;;;6213932;22;20023;-87
2024/01/09 13:53:54;;;;;;;2.42;2.13;;;;;;;;;;6212476;22;20072;-86
2024/01/09 13:56:30;;;;;;;;;;;;;;;;;;;;;
2024/01/09 13:59:07;;;;;;;3.28;2.20;;;;;;;;;;6263899;22;20030;-86
2024/01/09 14:02:09;;;;;;;;;;;;;;;;;;;;;
2024/01/09 14:04:56;;;;;;;2.88;2.30;;;;;;;;;;6262306;22;20102;-87
2024/01/09 14:07:55;;;;;;;3.88;2.40;;;;;;;;;;6240960;22;20020;-87
2024/01/09 14:10:30;;;;;;;2.95;2.10;;;;;;;;;;6237614;22;20039;-87
2024/01/09 14:13:47;;;;;;;4.00;1.92;;;;;;;;;;6239565;22;20024;-86
2024/01/09 14:16:21;;;;;;;2.67;2.30;;;;;;;;;;6262186;22;20026;-86
2024/01/09 14:18:49;;;;;;;3.38;2.08;;;;;;;;;;6260107;22;20103;-87
2024/01/09 14:21:15;;;;;;;2.80;2.20;;;;;;;;;;6212324;22;20054;-86
2024/01/09 14:23:44;;;;;;;3.83;2.33;;;;;;;;;;6235764;22;20015;-87
2024/01/09 14:26:34;;;;;;;3.20;2.05;;;;;;;;;;6213230;22;20738;-87
2024/01/09 14:29:06;;;;;;;3.80;2.40;;;;;;;;;;6263926;22;20015;-86
2024/01/09 14:31:37;;;;;;;2.70;2.08;;;;;;;;;;6209262;22;20015;-86
2024/01/09 14:34:16;;;;;;;;;;;;;;;;;;;;;
2024/01/09 14:36:50;;;;;;;2.28;2.00;;;;;;;;;;6236660;22;20095;-87
2024/01/09 14:39:16;;;;;;;3.55;2.08;;;;;;;;;;6213084;22;20020;-86
2024/01/09 14:42:03;;;;;;;2.05;1.80;;;;;;;;;;6259642;22;20134;-87
2024/01/09 14:44:37;;;;;;;4.05;2.03;;;;;;;;;;6240718;22;20027;-86
2024/01/09 14:47:19;;;;;;;2.23;1.80;;;;;;;;;;6215340;22;20393;-86
2024/01/09 14:49:47;;;;;;;2.08;1.83;;;;;;;;;;6210501;22;20039;-86
2024/01/09 14:52:14;;;;;;;3.10;1.85;;;;;;;;;;6213035;22;20065;-86
2024/01/09 14:54:40;;;;;;;3.03;2.17;;;;;;;;;;6237405;22;20425;-86
2024/01/09 14:57:13;;;;;;;2.25;1.98;;;;;;;;;;6240328;22;20331;-86
2024/01/09 14:59:45;;;;;;;2.13;1.88;;;;;;;;;;6239107;22;20095;-86
2024/01/09 15:02:11;;;;;;;2.72;2.33;;;;;;;;;;6265405;22;20022;-86
2024/01/09 15:04:41;;;;;;;3.80;2.67;;;;;;;;;;6237585;22;20020;-86
2024/01/09 15:07:17;;;;;;;4.15;3.20;;;;;;;;;;6241058;22;20039;-86
2024/01/09 15:09:53;;;;;;;;;;;;;;;;;;;;;
2024/01/09 15:12:19;;;;;;;4.30;3.08;;;;;;;;;;6239819;22;20019;-86
2024/01/09 15:14:53;;;;;;;5.35;3.67;;;;;;;;;;6211038;22;20023;-86
2024/01/09 15:20:32;;;;;;;4.30;3.55;;;;;;;;;;6251425;22;20059;-86
2024/01/09 15:22:58;;;;;;;4.13;3.33;;;;;;;;;;6263981;22;20328;-86
2024/01/09 15:25:31;;;;;;;6.82;4.28;;;;;;;;;;6236923;22;20019;-86
2024/01/09 15:28:05;;;;;;;4.45;3.35;;;;;;;;;;6238104;22;20024;-86
2024/01/09 15:30:40;;;;;;;4.72;3.42;;;;;;;;;;6233775;22;20019;-86
2024/01/09 15:33:35;;;;;;;5.40;3.57;;;;;;;;;;6264466;22;20444;-86
2024/01/09 15:36:11;;;;;;;4.85;3.63;;;;;;;;;;6262261;22;20352;-86
2024/01/09 15:38:49;;;;;;;;;;;;;;;;;;;;;
2024/01/09 15:41:18;;;;;;;4.33;3.63;;;;;;;;;;6239663;22;20089;-86
2024/01/09 15:44:00;;;;;;;4.97;3.63;;;;;;;;;;6209916;22;20503;-86
2024/01/09 15:46:50;;;;;;;4.70;3.70;;;;;;;;;;6204250;22;20054;-86
2024/01/09 15:49:35;;;;;;;6.22;4.10;;;;;;;;;;6214546;22;20015;-86
2024/01/09 15:55:20;;;;;;;6.63;5.05;;;;;;;;;;6223668;22;20526;-86
2024/01/09 15:57:52;;;;;;;5.80;4.20;;;;;;;;;;6212510;22;20289;-86